sensor_id;sensor_type;location;lat;lon;timestamp;temperature;humidity
73780;SHT30;62093;37.614;15.072;2022-08-01T00:01:57;26.24;58.94
73780;SHT30;62093;37.614;15.072;2022-08-01T00:04:23;26.22;58.86
73780;SHT30;62093;37.614;15.072;2022-08-01T00:06:49;26.21;59.10
73780;SHT30;62093;37.614;15.072;2022-08-01T00:09:15;26.22;59.12
73780;SHT30;62093;37.614;15.072;2022-08-01T00:11:41;26.21;59.15
73780;SHT30;62093;37.614;15.072;2022-08-01T00:14:07;26.22;58.88
73780;SHT30;62093;37.614;15.072;2022-08-01T00:16:36;26.20;59.10
73780;SHT30;62093;37.614;15.072;2022-08-01T00:19:02;26.20;59.07
73780;SHT30;62093;37.614;15.072;2022-08-01T00:21:27;26.21;59.23
73780;SHT30;62093;37.614;15.072;2022-08-01T00:23:53;26.20;59.05
73780;SHT30;62093;37.614;15.072;2022-08-01T00:26:19;26.20;59.36
73780;SHT30;62093;37.614;15.072;2022-08-01T00:28:45;26.18;59.19
73780;SHT30;62093;37.614;15.072;2022-08-01T00:31:11;26.18;59.04
73780;SHT30;62093;37.614;15.072;2022-08-01T00:33:37;26.20;59.23
73780;SHT30;62093;37.614;15.072;2022-08-01T00:36:03;26.16;59.21
73780;SHT30;62093;37.614;15.072;2022-08-01T00:38:29;26.16;59.31
73780;SHT30;62093;37.614;15.072;2022-08-01T00:40:55;26.17;59.41
73780;SHT30;62093;37.614;15.072;2022-08-01T00:43:21;26.17;59.21
73780;SHT30;62093;37.614;15.072;2022-08-01T00:45:46;26.16;59.38
73780;SHT30;62093;37.614;15.072;2022-08-01T00:48:12;26.16;59.38
73780;SHT30;62093;37.614;15.072;2022-08-01T00:50:38;26.14;59.47
73780;SHT30;62093;37.614;15.072;2022-08-01T00:53:04;26.13;59.41
73780;SHT30;62093;37.614;15.072;2022-08-01T00:55:31;26.14;59.36
73780;SHT30;62093;37.614;15.072;2022-08-01T00:57:57;26.11;59.55
73780;SHT30;62093;37.614;15.072;2022-08-01T01:00:24;26.11;59.36
73780;SHT30;62093;37.614;15.072;2022-08-01T01:02:50;26.13;59.46
73780;SHT30;62093;37.614;15.072;2022-08-01T01:05:16;26.10;59.55
73780;SHT30;62093;37.614;15.072;2022-08-01T01:08:02;26.11;59.53
73780;SHT30;62093;37.614;15.072;2022-08-01T01:13:05;26.10;59.62
73780;SHT30;62093;37.614;15.072;2022-08-01T01:20:37;26.10;59.61
73780;SHT30;62093;37.614;15.072;2022-08-01T01:31:27;26.05;59.50
73780;SHT30;62093;37.614;15.072;2022-08-01T01:33:58;26.05;59.65
73780;SHT30;62093;37.614;15.072;2022-08-01T01:36:26;26.04;59.62
73780;SHT30;62093;37.614;15.072;2022-08-01T01:38:53;26.05;59.54
73780;SHT30;62093;37.614;15.072;2022-08-01T01:41:19;26.04;59.55
73780;SHT30;62093;37.614;15.072;2022-08-01T01:43:46;26.07;59.56
73780;SHT30;62093;37.614;15.072;2022-08-01T01:46:17;26.02;59.73
73780;SHT30;62093;37.614;15.072;2022-08-01T01:48:46;26.04;59.66
73780;SHT30;62093;37.614;15.072;2022-08-01T01:51:13;26.04;59.61
73780;SHT30;62093;37.614;15.072;2022-08-01T01:53:39;26.05;59.59
73780;SHT30;62093;37.614;15.072;2022-08-01T01:56:06;26.00;59.75
73780;SHT30;62093;37.614;15.072;2022-08-01T01:58:34;26.01;59.64
73780;SHT30;62093;37.614;15.072;2022-08-01T02:01:02;26.04;59.63
73780;SHT30;62093;37.614;15.072;2022-08-01T02:03:28;26.01;59.67
73780;SHT30;62093;37.614;15.072;2022-08-01T02:05:54;26.01;59.56
73780;SHT30;62093;37.614;15.072;2022-08-01T02:08:21;26.00;59.54
73780;SHT30;62093;37.614;15.072;2022-08-01T02:10:50;25.98;59.54
73780;SHT30;62093;37.614;15.072;2022-08-01T02:13:37;25.97;59.60
73780;SHT30;62093;37.614;15.072;2022-08-01T02:16:04;25.98;59.54
73780;SHT30;62093;37.614;15.072;2022-08-01T02:18:32;25.98;59.46
73780;SHT30;62093;37.614;15.072;2022-08-01T02:21:00;26.00;59.48
73780;SHT30;62093;37.614;15.072;2022-08-01T02:23:31;25.97;59.46
73780;SHT30;62093;37.614;15.072;2022-08-01T02:26:00;25.98;59.48
73780;SHT30;62093;37.614;15.072;2022-08-01T02:28:35;25.96;59.46
73780;SHT30;62093;37.614;15.072;2022-08-01T02:31:06;25.98;59.47
73780;SHT30;62093;37.614;15.072;2022-08-01T02:34:18;25.96;59.51
73780;SHT30;62093;37.614;15.072;2022-08-01T02:36:30;25.94;59.60
73780;SHT30;62093;37.614;15.072;2022-08-01T02:38:59;25.93;59.58
73780;SHT30;62093;37.614;15.072;2022-08-01T02:41:26;25.93;59.62
73780;SHT30;62093;37.614;15.072;2022-08-01T02:43:56;25.94;59.60
73780;SHT30;62093;37.614;15.072;2022-08-01T02:46:35;25.93;59.55
73780;SHT30;62093;37.614;15.072;2022-08-01T02:49:05;25.91;59.60
73780;SHT30;62093;37.614;15.072;2022-08-01T02:51:33;25.91;59.59
73780;SHT30;62093;37.614;15.072;2022-08-01T02:54:01;25.91;59.62
73780;SHT30;62093;37.614;15.072;2022-08-01T02:56:28;25.90;59.58
73780;SHT30;62093;37.614;15.072;2022-08-01T02:59:03;25.93;59.59
73780;SHT30;62093;37.614;15.072;2022-08-01T03:01:30;25.91;59.56
73780;SHT30;62093;37.614;15.072;2022-08-01T03:03:57;25.93;59.53
73780;SHT30;62093;37.614;15.072;2022-08-01T03:06:24;25.94;59.52
73780;SHT30;62093;37.614;15.072;2022-08-01T03:08:50;25.91;59.51
73780;SHT30;62093;37.614;15.072;2022-08-01T03:11:17;25.88;59.56
73780;SHT30;62093;37.614;15.072;2022-08-01T03:13:44;25.90;59.56
73780;SHT30;62093;37.614;15.072;2022-08-01T03:16:11;25.88;59.58
73780;SHT30;62093;37.614;15.072;2022-08-01T03:18:39;25.91;59.61
73780;SHT30;62093;37.614;15.072;2022-08-01T03:21:07;25.86;59.61
73780;SHT30;62093;37.614;15.072;2022-08-01T03:23:35;25.88;59.62
73780;SHT30;62093;37.614;15.072;2022-08-01T03:26:02;25.88;59.65
73780;SHT30;62093;37.614;15.072;2022-08-01T03:28:29;25.88;59.63
73780;SHT30;62093;37.614;15.072;2022-08-01T03:30:56;25.88;59.68
73780;SHT30;62093;37.614;15.072;2022-08-01T03:33:23;25.86;59.67
73780;SHT30;62093;37.614;15.072;2022-08-01T03:35:52;25.88;59.73
73780;SHT30;62093;37.614;15.072;2022-08-01T03:38:22;25.87;59.76
73780;SHT30;62093;37.614;15.072;2022-08-01T03:41:13;25.87;59.78
73780;SHT30;62093;37.614;15.072;2022-08-01T03:43:47;25.86;59.78
73780;SHT30;62093;37.614;15.072;2022-08-01T03:46:19;25.84;59.79
73780;SHT30;62093;37.614;15.072;2022-08-01T03:48:48;25.86;59.81
73780;SHT30;62093;37.614;15.072;2022-08-01T03:51:17;25.84;59.77
73780;SHT30;62093;37.614;15.072;2022-08-01T03:53:45;25.83;59.83
73780;SHT30;62093;37.614;15.072;2022-08-01T03:56:12;25.86;59.81
73780;SHT30;62093;37.614;15.072;2022-08-01T03:58:42;25.84;59.84
73780;SHT30;62093;37.614;15.072;2022-08-01T04:01:09;25.84;59.80
73780;SHT30;62093;37.614;15.072;2022-08-01T04:03:37;25.83;59.85
73780;SHT30;62093;37.614;15.072;2022-08-01T04:06:07;25.83;59.81
73780;SHT30;62093;37.614;15.072;2022-08-01T04:08:37;25.86;59.82
73780;SHT30;62093;37.614;15.072;2022-08-01T04:11:04;25.83;59.80
73780;SHT30;62093;37.614;15.072;2022-08-01T04:13:31;25.81;59.86
73780;SHT30;62093;37.614;15.072;2022-08-01T04:15:57;25.84;59.85
73780;SHT30;62093;37.614;15.072;2022-08-01T04:18:23;25.83;59.88
73780;SHT30;62093;37.614;15.072;2022-08-01T04:20:49;25.83;59.86
73780;SHT30;62093;37.614;15.072;2022-08-01T04:23:16;25.83;59.86
73780;SHT30;62093;37.614;15.072;2022-08-01T04:25:44;25.81;59.87
73780;SHT30;62093;37.614;15.072;2022-08-01T04:28:13;25.81;59.83
73780;SHT30;62093;37.614;15.072;2022-08-01T04:30:44;25.83;59.88
73780;SHT30;62093;37.614;15.072;2022-08-01T04:33:13;25.81;59.87
73780;SHT30;62093;37.614;15.072;2022-08-01T04:35:44;25.81;59.84
73780;SHT30;62093;37.614;15.072;2022-08-01T04:38:12;25.78;59.90
73780;SHT30;62093;37.614;15.072;2022-08-01T04:40:42;25.84;59.85
73780;SHT30;62093;37.614;15.072;2022-08-01T04:43:11;25.80;59.84
73780;SHT30;62093;37.614;15.072;2022-08-01T04:45:39;25.81;59.84
73780;SHT30;62093;37.614;15.072;2022-08-01T04:48:06;25.80;59.86
73780;SHT30;62093;37.614;15.072;2022-08-01T04:50:32;25.80;59.81
73780;SHT30;62093;37.614;15.072;2022-08-01T04:52:58;25.81;59.81
73780;SHT30;62093;37.614;15.072;2022-08-01T04:55:24;25.83;59.86
73780;SHT30;62093;37.614;15.072;2022-08-01T04:57:49;25.81;59.89
73780;SHT30;62093;37.614;15.072;2022-08-01T05:00:15;25.83;59.89
73780;SHT30;62093;37.614;15.072;2022-08-01T05:02:44;25.84;59.87
73780;SHT30;62093;37.614;15.072;2022-08-01T05:05:10;25.84;59.89
73780;SHT30;62093;37.614;15.072;2022-08-01T05:07:36;25.81;59.85
73780;SHT30;62093;37.614;15.072;2022-08-01T05:10:05;25.84;59.89
73780;SHT30;62093;37.614;15.072;2022-08-01T05:12:31;25.86;59.86
73780;SHT30;62093;37.614;15.072;2022-08-01T05:14:58;25.87;59.88
73780;SHT30;62093;37.614;15.072;2022-08-01T05:17:24;25.86;59.91
73780;SHT30;62093;37.614;15.072;2022-08-01T05:19:50;25.87;59.89
73780;SHT30;62093;37.614;15.072;2022-08-01T05:22:16;25.87;59.87
73780;SHT30;62093;37.614;15.072;2022-08-01T05:24:42;25.87;59.84
73780;SHT30;62093;37.614;15.072;2022-08-01T05:27:08;25.87;59.81
73780;SHT30;62093;37.614;15.072;2022-08-01T05:29:34;25.87;59.77
73780;SHT30;62093;37.614;15.072;2022-08-01T05:32:01;25.87;59.74
73780;SHT30;62093;37.614;15.072;2022-08-01T05:34:27;25.91;59.70
73780;SHT30;62093;37.614;15.072;2022-08-01T05:36:53;25.91;59.66
73780;SHT30;62093;37.614;15.072;2022-08-01T05:39:19;25.90;59.64
73780;SHT30;62093;37.614;15.072;2022-08-01T05:41:45;25.90;59.63
73780;SHT30;62093;37.614;15.072;2022-08-01T05:44:11;25.91;59.57
73780;SHT30;62093;37.614;15.072;2022-08-01T05:46:37;25.91;59.48
73780;SHT30;62093;37.614;15.072;2022-08-01T05:49:04;25.91;59.40
73780;SHT30;62093;37.614;15.072;2022-08-01T05:51:30;25.93;59.37
73780;SHT30;62093;37.614;15.072;2022-08-01T05:53:58;25.91;59.36
73780;SHT30;62093;37.614;15.072;2022-08-01T05:56:24;25.93;59.26
73780;SHT30;62093;37.614;15.072;2022-08-01T05:58:50;25.93;59.23
73780;SHT30;62093;37.614;15.072;2022-08-01T06:01:17;25.94;59.24
73780;SHT30;62093;37.614;15.072;2022-08-01T06:03:43;25.94;59.19
73780;SHT30;62093;37.614;15.072;2022-08-01T06:06:09;25.97;59.29
73780;SHT30;62093;37.614;15.072;2022-08-01T06:08:35;25.96;59.26
73780;SHT30;62093;37.614;15.072;2022-08-01T06:11:01;25.96;59.20
73780;SHT30;62093;37.614;15.072;2022-08-01T06:13:27;25.97;59.29
73780;SHT30;62093;37.614;15.072;2022-08-01T06:15:53;25.96;59.17
73780;SHT30;62093;37.614;15.072;2022-08-01T06:18:19;25.97;59.16
73780;SHT30;62093;37.614;15.072;2022-08-01T06:20:45;25.97;59.18
73780;SHT30;62093;37.614;15.072;2022-08-01T06:23:11;25.96;59.11
73780;SHT30;62093;37.614;15.072;2022-08-01T06:25:37;25.97;59.10
73780;SHT30;62093;37.614;15.072;2022-08-01T06:28:03;25.98;59.10
73780;SHT30;62093;37.614;15.072;2022-08-01T06:30:29;25.97;59.09
73780;SHT30;62093;37.614;15.072;2022-08-01T06:32:55;26.00;59.01
73780;SHT30;62093;37.614;15.072;2022-08-01T06:35:26;25.98;59.05
73780;SHT30;62093;37.614;15.072;2022-08-01T06:37:52;25.98;59.09
73780;SHT30;62093;37.614;15.072;2022-08-01T06:40:18;26.00;59.06
73780;SHT30;62093;37.614;15.072;2022-08-01T06:42:45;26.00;58.96
73780;SHT30;62093;37.614;15.072;2022-08-01T06:45:13;26.01;58.96
73780;SHT30;62093;37.614;15.072;2022-08-01T06:47:40;26.02;58.97
73780;SHT30;62093;37.614;15.072;2022-08-01T06:50:07;26.01;58.97
73780;SHT30;62093;37.614;15.072;2022-08-01T06:52:34;26.04;58.92
73780;SHT30;62093;37.614;15.072;2022-08-01T06:55:00;26.05;58.94
73780;SHT30;62093;37.614;15.072;2022-08-01T06:57:26;26.04;58.94
73780;SHT30;62093;37.614;15.072;2022-08-01T06:59:53;26.04;58.96
73780;SHT30;62093;37.614;15.072;2022-08-01T07:02:20;26.05;58.94
73780;SHT30;62093;37.614;15.072;2022-08-01T07:04:46;26.05;58.83
73780;SHT30;62093;37.614;15.072;2022-08-01T07:07:12;26.07;58.85
73780;SHT30;62093;37.614;15.072;2022-08-01T07:09:37;26.05;58.88
73780;SHT30;62093;37.614;15.072;2022-08-01T07:12:06;26.10;58.88
73780;SHT30;62093;37.614;15.072;2022-08-01T07:14:32;26.10;58.84
73780;SHT30;62093;37.614;15.072;2022-08-01T07:16:58;26.10;58.82
73780;SHT30;62093;37.614;15.072;2022-08-01T07:19:25;26.11;58.79
73780;SHT30;62093;37.614;15.072;2022-08-01T07:21:52;26.11;58.73
73780;SHT30;62093;37.614;15.072;2022-08-01T07:24:17;26.13;58.73
73780;SHT30;62093;37.614;15.072;2022-08-01T07:26:49;26.11;58.70
73780;SHT30;62093;37.614;15.072;2022-08-01T07:29:15;26.11;58.57
73780;SHT30;62093;37.614;15.072;2022-08-01T07:31:41;26.13;58.58
73780;SHT30;62093;37.614;15.072;2022-08-01T07:34:07;26.14;58.62
73780;SHT30;62093;37.614;15.072;2022-08-01T07:36:32;26.14;58.65
73780;SHT30;62093;37.614;15.072;2022-08-01T07:38:58;26.14;58.60
73780;SHT30;62093;37.614;15.072;2022-08-01T07:41:24;26.13;58.64
73780;SHT30;62093;37.614;15.072;2022-08-01T07:43:50;26.16;58.64
73780;SHT30;62093;37.614;15.072;2022-08-01T07:46:16;26.16;58.61
73780;SHT30;62093;37.614;15.072;2022-08-01T07:48:42;26.16;58.64
73780;SHT30;62093;37.614;15.072;2022-08-01T07:51:09;26.14;58.62
73780;SHT30;62093;37.614;15.072;2022-08-01T07:53:36;26.16;58.63
73780;SHT30;62093;37.614;15.072;2022-08-01T07:56:02;26.18;58.62
73780;SHT30;62093;37.614;15.072;2022-08-01T07:58:30;26.17;58.61
73780;SHT30;62093;37.614;15.072;2022-08-01T08:00:56;26.17;58.57
73780;SHT30;62093;37.614;15.072;2022-08-01T08:03:22;26.22;58.56
73780;SHT30;62093;37.614;15.072;2022-08-01T08:05:47;26.21;58.53
73780;SHT30;62093;37.614;15.072;2022-08-01T08:08:13;26.21;58.54
73780;SHT30;62093;37.614;15.072;2022-08-01T08:10:41;26.21;58.48
73780;SHT30;62093;37.614;15.072;2022-08-01T08:13:07;26.25;58.48
73780;SHT30;62093;37.614;15.072;2022-08-01T08:15:33;26.25;58.42
73780;SHT30;62093;37.614;15.072;2022-08-01T08:17:59;26.28;58.39
73780;SHT30;62093;37.614;15.072;2022-08-01T08:20:24;26.27;58.33
73780;SHT30;62093;37.614;15.072;2022-08-01T08:22:53;26.28;58.31
73780;SHT30;62093;37.614;15.072;2022-08-01T08:25:19;26.27;58.32
73780;SHT30;62093;37.614;15.072;2022-08-01T08:27:46;26.28;58.31
73780;SHT30;62093;37.614;15.072;2022-08-01T08:30:12;26.25;58.32
73780;SHT30;62093;37.614;15.072;2022-08-01T08:32:38;26.28;58.31
73780;SHT30;62093;37.614;15.072;2022-08-01T08:35:05;26.28;58.33
73780;SHT30;62093;37.614;15.072;2022-08-01T08:37:32;26.28;58.31
73780;SHT30;62093;37.614;15.072;2022-08-01T08:39:58;26.28;58.31
73780;SHT30;62093;37.614;15.072;2022-08-01T08:42:25;26.29;58.33
73780;SHT30;62093;37.614;15.072;2022-08-01T08:44:51;26.28;58.35
73780;SHT30;62093;37.614;15.072;2022-08-01T08:47:17;26.27;58.30
73780;SHT30;62093;37.614;15.072;2022-08-01T08:49:44;26.28;58.35
73780;SHT30;62093;37.614;15.072;2022-08-01T08:52:11;26.28;58.33
73780;SHT30;62093;37.614;15.072;2022-08-01T08:54:38;26.29;58.36
73780;SHT30;62093;37.614;15.072;2022-08-01T08:57:06;26.27;58.36
73780;SHT30;62093;37.614;15.072;2022-08-01T08:59:32;26.29;58.34
73780;SHT30;62093;37.614;15.072;2022-08-01T09:01:59;26.28;58.36
73780;SHT30;62093;37.614;15.072;2022-08-01T09:04:25;26.28;58.35
73780;SHT30;62093;37.614;15.072;2022-08-01T09:06:53;26.29;58.37
73780;SHT30;62093;37.614;15.072;2022-08-01T09:09:18;26.27;58.34
73780;SHT30;62093;37.614;15.072;2022-08-01T09:11:44;26.27;58.35
73780;SHT30;62093;37.614;15.072;2022-08-01T09:14:16;26.29;58.35
73780;SHT30;62093;37.614;15.072;2022-08-01T09:17:05;26.27;58.37
73780;SHT30;62093;37.614;15.072;2022-08-01T09:19:38;26.28;58.32
73780;SHT30;62093;37.614;15.072;2022-08-01T09:22:07;26.29;58.31
73780;SHT30;62093;37.614;15.072;2022-08-01T09:24:34;26.31;58.33
73780;SHT30;62093;37.614;15.072;2022-08-01T09:27:14;26.29;58.29
73780;SHT30;62093;37.614;15.072;2022-08-01T09:29:41;26.32;58.27
73780;SHT30;62093;37.614;15.072;2022-08-01T09:32:07;26.28;58.31
73780;SHT30;62093;37.614;15.072;2022-08-01T09:34:33;26.29;58.26
73780;SHT30;62093;37.614;15.072;2022-08-01T09:37:01;26.34;58.24
73780;SHT30;62093;37.614;15.072;2022-08-01T09:39:37;26.32;58.26
73780;SHT30;62093;37.614;15.072;2022-08-01T09:42:23;26.34;58.22
73780;SHT30;62093;37.614;15.072;2022-08-01T09:44:49;26.35;58.19
73780;SHT30;62093;37.614;15.072;2022-08-01T09:47:16;26.37;58.14
73780;SHT30;62093;37.614;15.072;2022-08-01T09:49:43;26.34;58.16
73780;SHT30;62093;37.614;15.072;2022-08-01T09:52:20;26.37;58.11
73780;SHT30;62093;37.614;15.072;2022-08-01T09:55:01;26.37;58.10
73780;SHT30;62093;37.614;15.072;2022-08-01T09:57:28;26.37;58.07
73780;SHT30;62093;37.614;15.072;2022-08-01T09:59:57;26.38;58.10
73780;SHT30;62093;37.614;15.072;2022-08-01T10:02:41;26.39;58.04
73780;SHT30;62093;37.614;15.072;2022-08-01T10:05:09;26.41;58.02
73780;SHT30;62093;37.614;15.072;2022-08-01T10:07:36;26.38;57.97
73780;SHT30;62093;37.614;15.072;2022-08-01T10:10:20;26.39;58.05
73780;SHT30;62093;37.614;15.072;2022-08-01T10:12:47;26.39;58.00
73780;SHT30;62093;37.614;15.072;2022-08-01T10:15:15;26.38;58.05
73780;SHT30;62093;37.614;15.072;2022-08-01T10:17:49;26.39;58.01
73780;SHT30;62093;37.614;15.072;2022-08-01T10:20:23;26.41;58.03
73780;SHT30;62093;37.614;15.072;2022-08-01T10:22:50;26.41;57.98
73780;SHT30;62093;37.614;15.072;2022-08-01T10:25:17;26.41;57.95
73780;SHT30;62093;37.614;15.072;2022-08-01T10:27:52;26.42;57.88
73780;SHT30;62093;37.614;15.072;2022-08-01T10:30:20;26.42;57.88
73780;SHT30;62093;37.614;15.072;2022-08-01T10:32:47;26.45;57.82
73780;SHT30;62093;37.614;15.072;2022-08-01T10:35:13;26.47;57.85
73780;SHT30;62093;37.614;15.072;2022-08-01T10:37:44;26.49;57.81
73780;SHT30;62093;37.614;15.072;2022-08-01T10:40:12;26.45;57.81
73780;SHT30;62093;37.614;15.072;2022-08-01T10:42:42;26.45;57.84
73780;SHT30;62093;37.614;15.072;2022-08-01T10:45:14;26.45;57.88
73780;SHT30;62093;37.614;15.072;2022-08-01T10:50:42;26.45;57.89
73780;SHT30;62093;37.614;15.072;2022-08-01T10:53:13;26.45;57.82
73780;SHT30;62093;37.614;15.072;2022-08-01T10:58:20;26.47;57.82
73780;SHT30;62093;37.614;15.072;2022-08-01T11:00:47;26.47;57.79
73780;SHT30;62093;37.614;15.072;2022-08-01T11:03:13;26.47;57.80
73780;SHT30;62093;37.614;15.072;2022-08-01T11:05:42;26.47;57.80
73780;SHT30;62093;37.614;15.072;2022-08-01T11:08:10;26.48;57.78
73780;SHT30;62093;37.614;15.072;2022-08-01T11:10:42;26.47;57.78
73780;SHT30;62093;37.614;15.072;2022-08-01T11:13:09;26.51;57.78
73780;SHT30;62093;37.614;15.072;2022-08-01T11:15:40;26.51;57.75
73780;SHT30;62093;37.614;15.072;2022-08-01T11:20:59;26.49;57.73
73780;SHT30;62093;37.614;15.072;2022-08-01T11:23:28;26.51;57.75
73780;SHT30;62093;37.614;15.072;2022-08-01T11:26:06;26.52;57.72
73780;SHT30;62093;37.614;15.072;2022-08-01T11:28:32;26.55;57.71
73780;SHT30;62093;37.614;15.072;2022-08-01T11:38:41;26.51;57.74
73780;SHT30;62093;37.614;15.072;2022-08-01T11:41:21;26.49;57.70
73780;SHT30;62093;37.614;15.072;2022-08-01T11:44:13;26.53;57.67
73780;SHT30;62093;37.614;15.072;2022-08-01T11:46:51;26.53;57.67
73780;SHT30;62093;37.614;15.072;2022-08-01T11:49:29;26.55;57.63
73780;SHT30;62093;37.614;15.072;2022-08-01T11:52:08;26.52;57.64
73780;SHT30;62093;37.614;15.072;2022-08-01T11:54:36;26.52;57.67
73780;SHT30;62093;37.614;15.072;2022-08-01T11:57:08;26.52;57.62
73780;SHT30;62093;37.614;15.072;2022-08-01T12:02:03;26.56;57.66
73780;SHT30;62093;37.614;15.072;2022-08-01T12:04:51;26.55;57.64
73780;SHT30;62093;37.614;15.072;2022-08-01T12:07:18;26.58;57.56
73780;SHT30;62093;37.614;15.072;2022-08-01T12:09:44;26.58;57.55
73780;SHT30;62093;37.614;15.072;2022-08-01T12:12:10;26.59;57.56
73780;SHT30;62093;37.614;15.072;2022-08-01T12:14:36;26.62;57.54
73780;SHT30;62093;37.614;15.072;2022-08-01T12:17:02;26.59;57.46
73780;SHT30;62093;37.614;15.072;2022-08-01T12:19:28;26.65;57.42
73780;SHT30;62093;37.614;15.072;2022-08-01T12:22:13;26.63;57.39
73780;SHT30;62093;37.614;15.072;2022-08-01T12:24:41;26.65;57.44
73780;SHT30;62093;37.614;15.072;2022-08-01T12:27:09;26.62;57.41
73780;SHT30;62093;37.614;15.072;2022-08-01T12:29:41;26.63;57.40
73780;SHT30;62093;37.614;15.072;2022-08-01T12:32:27;26.68;57.36
73780;SHT30;62093;37.614;15.072;2022-08-01T12:34:55;26.67;57.40
73780;SHT30;62093;37.614;15.072;2022-08-01T12:37:23;26.63;57.38
73780;SHT30;62093;37.614;15.072;2022-08-01T12:39:49;26.67;57.35
73780;SHT30;62093;37.614;15.072;2022-08-01T12:42:15;26.67;57.26
73780;SHT30;62093;37.614;15.072;2022-08-01T12:44:44;26.71;57.30
73780;SHT30;62093;37.614;15.072;2022-08-01T12:47:11;26.69;57.24
73780;SHT30;62093;37.614;15.072;2022-08-01T12:49:38;26.67;57.31
73780;SHT30;62093;37.614;15.072;2022-08-01T12:52:05;26.69;57.25
73780;SHT30;62093;37.614;15.072;2022-08-01T12:55:04;26.71;57.20
73780;SHT30;62093;37.614;15.072;2022-08-01T12:57:30;26.76;57.15
73780;SHT30;62093;37.614;15.072;2022-08-01T13:02:33;26.79;57.04
73780;SHT30;62093;37.614;15.072;2022-08-01T13:04:59;26.79;57.02
73780;SHT30;62093;37.614;15.072;2022-08-01T13:10:04;26.79;57.03
73780;SHT30;62093;37.614;15.072;2022-08-01T13:12:30;26.85;56.99
73780;SHT30;62093;37.614;15.072;2022-08-01T13:14:56;26.82;56.96
73780;SHT30;62093;37.614;15.072;2022-08-01T13:17:33;26.79;56.94
73780;SHT30;62093;37.614;15.072;2022-08-01T13:20:04;26.80;56.97
73780;SHT30;62093;37.614;15.072;2022-08-01T13:22:32;26.75;57.07
73780;SHT30;62093;37.614;15.072;2022-08-01T13:25:18;26.75;57.02
73780;SHT30;62093;37.614;15.072;2022-08-01T13:27:44;26.80;56.96
73780;SHT30;62093;37.614;15.072;2022-08-01T13:30:18;26.76;56.99
73780;SHT30;62093;37.614;15.072;2022-08-01T13:32:59;26.76;56.97
73780;SHT30;62093;37.614;15.072;2022-08-01T13:35:26;26.75;56.98
73780;SHT30;62093;37.614;15.072;2022-08-01T13:37:52;26.78;57.07
73780;SHT30;62093;37.614;15.072;2022-08-01T13:40:25;26.73;57.08
73780;SHT30;62093;37.614;15.072;2022-08-01T13:42:52;26.76;57.13
73780;SHT30;62093;37.614;15.072;2022-08-01T13:45:19;26.79;57.05
73780;SHT30;62093;37.614;15.072;2022-08-01T13:47:44;26.76;57.06
73780;SHT30;62093;37.614;15.072;2022-08-01T13:50:10;26.79;57.02
73780;SHT30;62093;37.614;15.072;2022-08-01T13:52:36;26.80;57.00
73780;SHT30;62093;37.614;15.072;2022-08-01T13:55:02;26.76;57.04
73780;SHT30;62093;37.614;15.072;2022-08-01T13:57:28;26.76;57.10
73780;SHT30;62093;37.614;15.072;2022-08-01T13:59:54;26.80;57.08
73780;SHT30;62093;37.614;15.072;2022-08-01T14:02:20;26.75;57.09
73780;SHT30;62093;37.614;15.072;2022-08-01T14:04:46;26.78;57.14
73780;SHT30;62093;37.614;15.072;2022-08-01T14:07:12;26.82;56.97
73780;SHT30;62093;37.614;15.072;2022-08-01T14:09:38;26.82;56.93
73780;SHT30;62093;37.614;15.072;2022-08-01T14:12:04;26.82;56.94
73780;SHT30;62093;37.614;15.072;2022-08-01T14:14:30;26.85;56.89
73780;SHT30;62093;37.614;15.072;2022-08-01T14:16:56;26.86;56.86
73780;SHT30;62093;37.614;15.072;2022-08-01T14:19:22;26.86;56.91
73780;SHT30;62093;37.614;15.072;2022-08-01T14:21:48;26.85;56.93
73780;SHT30;62093;37.614;15.072;2022-08-01T14:24:13;26.88;56.90
73780;SHT30;62093;37.614;15.072;2022-08-01T14:26:39;26.90;56.85
73780;SHT30;62093;37.614;15.072;2022-08-01T14:29:05;26.86;56.95
73780;SHT30;62093;37.614;15.072;2022-08-01T14:31:31;26.82;56.93
73780;SHT30;62093;37.614;15.072;2022-08-01T14:33:57;26.83;56.99
73780;SHT30;62093;37.614;15.072;2022-08-01T14:36:22;26.83;56.99
73780;SHT30;62093;37.614;15.072;2022-08-01T14:38:48;26.90;56.90
73780;SHT30;62093;37.614;15.072;2022-08-01T14:41:14;26.86;56.86
73780;SHT30;62093;37.614;15.072;2022-08-01T14:43:40;26.89;56.85
73780;SHT30;62093;37.614;15.072;2022-08-01T14:46:06;26.88;56.82
73780;SHT30;62093;37.614;15.072;2022-08-01T14:48:35;26.90;56.81
73780;SHT30;62093;37.614;15.072;2022-08-01T14:51:01;26.93;56.78
73780;SHT30;62093;37.614;15.072;2022-08-01T14:53:28;26.93;56.78
73780;SHT30;62093;37.614;15.072;2022-08-01T14:55:54;26.93;56.75
73780;SHT30;62093;37.614;15.072;2022-08-01T14:58:20;26.96;56.70
73780;SHT30;62093;37.614;15.072;2022-08-01T15:00:46;26.90;56.87
73780;SHT30;62093;37.614;15.072;2022-08-01T15:03:12;26.88;56.88
73780;SHT30;62093;37.614;15.072;2022-08-01T15:05:38;26.85;56.86
73780;SHT30;62093;37.614;15.072;2022-08-01T15:08:05;26.88;56.94
73780;SHT30;62093;37.614;15.072;2022-08-01T15:10:31;26.82;57.01
73780;SHT30;62093;37.614;15.072;2022-08-01T15:12:58;26.83;57.06
73780;SHT30;62093;37.614;15.072;2022-08-01T15:15:26;26.85;57.03
73780;SHT30;62093;37.614;15.072;2022-08-01T15:17:52;26.83;57.03
73780;SHT30;62093;37.614;15.072;2022-08-01T15:20:18;26.83;57.08
73780;SHT30;62093;37.614;15.072;2022-08-01T15:22:45;26.80;57.13
73780;SHT30;62093;37.614;15.072;2022-08-01T15:25:10;26.82;57.11
73780;SHT30;62093;37.614;15.072;2022-08-01T15:27:36;26.82;57.14
73780;SHT30;62093;37.614;15.072;2022-08-01T15:30:03;26.78;57.22
73780;SHT30;62093;37.614;15.072;2022-08-01T15:32:29;26.79;57.19
73780;SHT30;62093;37.614;15.072;2022-08-01T15:34:55;26.79;57.25
73780;SHT30;62093;37.614;15.072;2022-08-01T15:37:21;26.76;57.29
73780;SHT30;62093;37.614;15.072;2022-08-01T15:39:47;26.78;57.28
73780;SHT30;62093;37.614;15.072;2022-08-01T15:42:15;26.76;57.25
73780;SHT30;62093;37.614;15.072;2022-08-01T15:44:41;26.75;57.31
73780;SHT30;62093;37.614;15.072;2022-08-01T15:47:08;26.75;57.35
73780;SHT30;62093;37.614;15.072;2022-08-01T15:49:35;26.75;57.29
73780;SHT30;62093;37.614;15.072;2022-08-01T15:52:03;26.72;57.38
73780;SHT30;62093;37.614;15.072;2022-08-01T15:54:29;26.73;57.38
73780;SHT30;62093;37.614;15.072;2022-08-01T15:56:55;26.73;57.40
73780;SHT30;62093;37.614;15.072;2022-08-01T15:59:20;26.73;57.46
73780;SHT30;62093;37.614;15.072;2022-08-01T16:01:46;26.73;57.41